createdAt,value
2019-05-06T00:01:45.431Z,5.86
2019-05-06T00:04:17.716Z,5.82
2019-05-06T00:06:50.101Z,5.77
2019-05-06T00:09:24.020Z,5.73
2019-05-06T00:11:56.505Z,5.69
2019-05-06T00:14:28.749Z,5.65
2019-05-06T00:17:01.022Z,5.62
2019-05-06T00:19:34.166Z,5.60
2019-05-06T00:22:06.520Z,5.52
2019-05-06T00:24:38.769Z,5.49
2019-05-06T00:27:11.013Z,5.46
2019-05-06T00:29:43.826Z,5.44
2019-05-06T00:32:17.254Z,5.40
2019-05-06T00:34:49.520Z,5.36
2019-05-06T00:37:21.744Z,5.35
2019-05-06T00:39:53.994Z,5.33
2019-05-06T00:42:26.277Z,5.30
2019-05-06T00:44:58.501Z,5.27
2019-05-06T00:47:30.713Z,5.24
2019-05-06T00:50:04.244Z,5.22
2019-05-06T00:52:37.794Z,5.21
2019-05-06T00:55:10.071Z,5.20
2019-05-06T00:57:43.845Z,5.17
2019-05-06T01:00:16.395Z,5.14
2019-05-06T01:02:48.707Z,5.11
2019-05-06T01:05:20.934Z,5.10
2019-05-06T01:07:54.875Z,5.08
2019-05-06T01:10:27.165Z,5.06
2019-05-06T01:12:59.436Z,5.04
2019-05-06T01:15:31.682Z,5.08
2019-05-06T01:18:04.325Z,5.19
2019-05-06T01:20:37.576Z,5.34
2019-05-06T01:23:09.922Z,5.40
2019-05-06T01:25:43.819Z,5.33
2019-05-06T01:28:16.255Z,5.25
2019-05-06T01:30:48.498Z,5.18
2019-05-06T01:33:20.799Z,5.09
2019-05-06T01:35:54.167Z,5.03
2019-05-06T01:38:26.888Z,4.99
2019-05-06T01:40:59.113Z,4.93
2019-05-06T01:43:31.302Z,4.89
2019-05-06T01:46:04.732Z,4.88
2019-05-06T01:48:37.147Z,4.91
2019-05-06T01:51:09.378Z,5.02
2019-05-06T01:53:41.820Z,5.19
2019-05-06T01:56:14.569Z,5.34
2019-05-06T01:58:47.134Z,5.50
2019-05-06T02:01:19.375Z,5.66
2019-05-06T02:03:53.680Z,5.77
2019-05-06T02:06:25.545Z,5.87
2019-05-06T02:08:57.874Z,5.94
2019-05-06T02:11:30.080Z,5.99
2019-05-06T02:14:04.533Z,5.99
2019-05-06T02:16:36.303Z,5.99
2019-05-06T02:19:08.578Z,5.99
2019-05-06T02:21:40.792Z,6.01
2019-05-06T02:24:13.536Z,5.97
2019-05-06T02:26:45.938Z,5.88
2019-05-06T02:29:18.416Z,5.72
2019-05-06T02:31:50.743Z,5.57
2019-05-06T02:34:25.414Z,5.44
2019-05-06T02:36:56.891Z,5.35
2019-05-06T02:39:29.172Z,5.26
2019-05-06T02:42:04.064Z,5.18
2019-05-06T02:44:35.328Z,5.12
2019-05-06T02:47:07.534Z,5.06
2019-05-06T02:49:39.784Z,5.03
2019-05-06T02:52:14.088Z,5.02
2019-05-06T02:54:46.010Z,5.00
2019-05-06T02:57:20.250Z,4.98
2019-05-06T02:59:55.321Z,4.99
2019-05-06T03:02:38.073Z,5.02
2019-05-06T03:05:04.028Z,5.07
2019-05-06T03:07:37.606Z,5.18
2019-05-06T03:10:09.361Z,5.34
2019-05-06T03:12:43.085Z,5.51
2019-05-06T03:15:17.093Z,5.65
2019-05-06T03:17:49.436Z,5.73
2019-05-06T03:20:23.678Z,5.81
2019-05-06T03:22:55.633Z,5.90
2019-05-06T03:25:28.022Z,6.00
2019-05-06T03:28:00.350Z,6.08
2019-05-06T03:30:36.165Z,6.12
2019-05-06T03:33:37.978Z,6.07
2019-05-06T03:35:57.811Z,5.93
2019-05-06T03:38:16.540Z,5.76
2019-05-06T03:40:48.905Z,5.60
2019-05-06T03:43:23.324Z,5.46
2019-05-06T03:45:57.298Z,5.34
2019-05-06T03:48:33.308Z,5.23
2019-05-06T03:51:04.562Z,5.15
2019-05-06T03:53:36.988Z,5.08
2019-05-06T03:56:09.226Z,5.03
2019-05-06T03:58:43.507Z,4.99
2019-05-06T04:01:15.419Z,4.95
2019-05-06T04:03:52.693Z,4.94
2019-05-06T04:06:24.107Z,4.93
2019-05-06T04:08:55.741Z,4.89
2019-05-06T04:11:28.337Z,4.86
2019-05-06T04:14:02.839Z,4.87
2019-05-06T04:16:34.959Z,4.87
2019-05-06T04:19:07.235Z,4.87
2019-05-06T04:21:39.516Z,4.85
2019-05-06T04:24:13.340Z,4.86
2019-05-06T04:26:46.511Z,4.86
2019-05-06T04:29:18.912Z,4.90
2019-05-06T04:31:53.865Z,4.95
2019-05-06T04:34:25.172Z,4.99
2019-05-06T04:36:57.401Z,5.07
2019-05-06T04:39:32.776Z,5.22
2019-05-06T04:42:09.337Z,5.40
2019-05-06T04:44:40.102Z,5.52
2019-05-06T04:47:14.699Z,5.64
2019-05-06T04:49:46.310Z,5.71
2019-05-06T04:52:18.606Z,5.76
2019-05-06T04:54:53.205Z,5.83
2019-05-06T04:57:25.000Z,5.88
2019-05-06T04:59:57.994Z,5.91
2019-05-06T05:02:33.696Z,5.89
2019-05-06T05:05:05.338Z,5.89
2019-05-06T05:07:37.976Z,5.87
2019-05-06T05:10:12.514Z,5.86
2019-05-06T05:12:44.325Z,5.87
2019-05-06T05:15:16.558Z,5.88
2019-05-06T05:17:48.992Z,5.94
2019-05-06T05:20:36.466Z,5.98
2019-05-06T05:22:55.419Z,6.03
2019-05-06T05:25:27.749Z,6.08
2019-05-06T05:28:02.155Z,6.11
2019-05-06T05:30:36.734Z,6.13
2019-05-06T05:33:08.948Z,6.14
2019-05-06T05:35:43.081Z,6.17
2019-05-06T05:38:17.182Z,6.21
2019-05-06T05:40:49.692Z,6.34
2019-05-06T05:43:22.815Z,6.62
2019-05-06T05:45:55.268Z,7.09
2019-05-06T05:48:27.712Z,7.61
2019-05-06T05:50:59.961Z,8.13
2019-05-06T05:53:32.967Z,8.59
2019-05-06T05:56:05.237Z,8.97
2019-05-06T05:58:37.780Z,9.32
2019-05-06T06:01:12.471Z,9.49
2019-05-06T06:03:44.017Z,9.51
2019-05-06T06:06:16.283Z,9.51
2019-05-06T06:08:48.553Z,9.54
2019-05-06T06:11:22.877Z,9.60
2019-05-06T06:13:54.743Z,9.69
2019-05-06T06:16:27.047Z,9.79
2019-05-06T06:18:59.386Z,9.88
2019-05-06T06:21:32.373Z,9.97
2019-05-06T06:24:04.678Z,10.06
2019-05-06T06:26:36.883Z,10.14
2019-05-06T06:29:09.121Z,10.16
2019-05-06T06:31:42.802Z,10.15
2019-05-06T06:34:15.123Z,10.19
2019-05-06T06:36:47.625Z,10.25
2019-05-06T06:39:20.145Z,10.29
2019-05-06T06:41:52.369Z,10.31
2019-05-06T06:44:24.608Z,10.31
2019-05-06T06:46:56.801Z,10.34
2019-05-06T06:49:29.019Z,10.37
2019-05-06T06:52:02.787Z,10.48
2019-05-06T06:54:35.256Z,10.61
2019-05-06T06:57:09.319Z,10.71
2019-05-06T06:59:42.661Z,10.79
2019-05-06T07:02:15.792Z,10.79
2019-05-06T07:04:48.026Z,10.81
2019-05-06T07:07:20.282Z,10.86
2019-05-06T07:09:52.721Z,10.93
2019-05-06T07:12:25.211Z,10.99
2019-05-06T07:14:57.374Z,11.05
2019-05-06T07:17:29.600Z,11.13
2019-05-06T07:20:02.853Z,11.17
2019-05-06T07:22:36.538Z,11.18
2019-05-06T07:25:08.796Z,11.15
2019-05-06T07:27:42.014Z,11.12
2019-05-06T07:30:14.603Z,11.12
2019-05-06T07:32:46.850Z,11.07
2019-05-06T07:35:19.305Z,10.93
2019-05-06T07:37:53.032Z,10.93
2019-05-06T07:40:25.499Z,11.02
2019-05-06T07:42:57.813Z,11.10
2019-05-06T07:45:30.168Z,11.13
2019-05-06T07:48:03.576Z,11.21
2019-05-06T07:50:36.074Z,11.26
2019-05-06T07:53:08.409Z,11.24
2019-05-06T07:55:42.435Z,11.28
2019-05-06T07:58:16.230Z,11.25
2019-05-06T08:00:48.812Z,11.21
2019-05-06T08:03:22.232Z,11.17
2019-05-06T08:05:58.597Z,11.16
2019-05-06T08:08:28.571Z,11.10
2019-05-06T08:11:02.726Z,11.06
2019-05-06T08:13:34.665Z,11.00
2019-05-06T08:16:07.172Z,11.04
2019-05-06T08:18:39.442Z,11.10
2019-05-06T08:21:13.048Z,11.09
2019-05-06T08:23:45.488Z,11.07
2019-05-06T08:26:18.249Z,11.12
2019-05-06T08:28:52.692Z,11.02
2019-05-06T08:31:24.749Z,11.05
2019-05-06T08:33:57.005Z,11.14
2019-05-06T08:36:30.547Z,11.30
2019-05-06T08:39:03.043Z,11.35
2019-05-06T08:41:36.836Z,11.43
2019-05-06T08:44:09.113Z,11.61
2019-05-06T08:46:43.202Z,11.77
2019-05-06T08:49:15.382Z,12.00
2019-05-06T08:51:48.064Z,12.27
2019-05-06T08:54:22.573Z,12.48
2019-05-06T08:56:54.418Z,12.65
2019-05-06T08:59:26.958Z,12.87
2019-05-06T09:01:59.211Z,13.12
2019-05-06T09:04:32.066Z,13.33
2019-05-06T09:07:04.411Z,13.54
2019-05-06T09:09:36.727Z,13.78
2019-05-06T09:12:09.030Z,13.95
2019-05-06T09:14:43.035Z,13.99
2019-05-06T09:17:15.535Z,13.91
2019-05-06T09:19:47.785Z,13.51
2019-05-06T09:22:20.077Z,13.25
2019-05-06T09:24:53.077Z,13.02
2019-05-06T09:27:25.648Z,12.97
2019-05-06T09:29:57.895Z,12.82
2019-05-06T09:32:35.631Z,12.94
2019-05-06T09:35:04.168Z,13.18
2019-05-06T09:37:36.764Z,13.44
2019-05-06T09:40:09.041Z,13.65
2019-05-06T09:42:42.606Z,13.90
2019-05-06T09:45:15.118Z,14.14
2019-05-06T09:47:47.577Z,14.34
2019-05-06T09:50:19.897Z,14.54
2019-05-06T09:52:52.882Z,14.68
2019-05-06T09:55:25.351Z,14.96
2019-05-06T09:57:57.899Z,15.26
2019-05-06T10:00:32.762Z,15.48
2019-05-06T10:03:04.087Z,15.66
2019-05-06T10:05:36.409Z,15.69
2019-05-06T10:08:08.724Z,15.68
2019-05-06T10:10:55.294Z,15.85
2019-05-06T10:13:14.979Z,15.89
2019-05-06T10:15:47.283Z,15.89
2019-05-06T10:18:19.579Z,15.62
2019-05-06T10:20:51.950Z,15.56
2019-05-06T10:23:24.216Z,15.58
2019-05-06T10:25:56.550Z,15.57
2019-05-06T10:28:33.246Z,15.49
2019-05-06T10:31:03.898Z,15.41
2019-05-06T10:33:36.215Z,15.72
2019-05-06T10:36:08.703Z,15.98
2019-05-06T10:38:42.352Z,15.90
2019-05-06T10:41:16.404Z,15.54
2019-05-06T10:43:48.731Z,15.05
2019-05-06T10:46:22.536Z,14.63
2019-05-06T10:48:54.994Z,14.18
2019-05-06T10:51:27.235Z,14.01
2019-05-06T10:53:59.449Z,13.90
2019-05-06T10:56:32.989Z,13.69
2019-05-06T10:59:05.271Z,13.49
2019-05-06T11:01:37.484Z,13.25
2019-05-06T11:04:09.733Z,13.08
2019-05-06T11:06:43.041Z,12.91
2019-05-06T11:09:16.534Z,12.85
2019-05-06T11:11:48.767Z,12.92
2019-05-06T11:14:22.862Z,13.06
2019-05-06T11:16:54.995Z,13.27
2019-05-06T11:19:27.246Z,13.30
2019-05-06T11:21:59.479Z,13.28
2019-05-06T11:24:32.932Z,13.37
2019-05-06T11:27:05.213Z,13.64
2019-05-06T11:29:37.465Z,14.10
2019-05-06T11:32:09.709Z,14.61
2019-05-06T11:34:42.135Z,14.94
2019-05-06T11:37:15.015Z,15.39
2019-05-06T11:39:48.847Z,15.65
2019-05-06T11:42:28.997Z,15.54
2019-05-06T11:44:56.484Z,15.44
2019-05-06T11:47:29.178Z,15.29
2019-05-06T11:50:04.791Z,15.10
2019-05-06T11:52:37.572Z,14.92
2019-05-06T11:55:09.852Z,14.59
2019-05-06T11:57:44.538Z,14.47
2019-05-06T12:00:18.010Z,14.13
2019-05-06T12:02:50.234Z,13.51
2019-05-06T12:05:22.458Z,13.27
2019-05-06T12:08:04.617Z,13.10
2019-05-06T12:10:29.054Z,12.88
2019-05-06T12:13:02.796Z,12.51
2019-05-06T12:15:35.215Z,12.29
2019-05-06T12:18:07.301Z,12.22
2019-05-06T12:20:39.591Z,12.25
2019-05-06T12:23:15.287Z,12.28
2019-05-06T12:25:46.299Z,12.26
2019-05-06T12:28:18.636Z,12.18
2019-05-06T12:30:52.428Z,12.14
2019-05-06T12:33:24.962Z,12.42
2019-05-06T12:35:57.182Z,13.05
2019-05-06T12:38:30.850Z,14.37
2019-05-06T12:41:03.514Z,17.54
2019-05-06T12:43:36.112Z,18.83
2019-05-06T12:46:08.341Z,21.67
2019-05-06T12:48:40.645Z,20.58
2019-05-06T12:51:12.878Z,18.94
2019-05-06T12:53:45.363Z,17.42
2019-05-06T12:56:19.778Z,16.06
2019-05-06T12:58:52.632Z,15.12
2019-05-06T13:01:24.928Z,14.50
2019-05-06T13:03:57.177Z,13.90
2019-05-06T13:06:29.466Z,13.55
2019-05-06T13:09:05.001Z,13.46
2019-05-06T13:11:37.288Z,13.75
2019-05-06T13:14:09.578Z,13.81
2019-05-06T13:16:42.584Z,13.81
2019-05-06T13:19:16.470Z,16.04
2019-05-06T13:21:48.908Z,18.24
2019-05-06T13:24:22.829Z,19.72
2019-05-06T13:26:58.900Z,21.69
2019-05-06T13:29:35.162Z,21.26
2019-05-06T13:32:05.184Z,20.64
2019-05-06T13:34:38.510Z,20.64
2019-05-06T13:37:12.830Z,19.58
2019-05-06T13:39:44.922Z,18.89
2019-05-06T13:42:17.202Z,19.47
2019-05-06T13:44:49.422Z,18.25
2019-05-06T13:47:22.935Z,18.87
2019-05-06T13:49:55.245Z,17.05
2019-05-06T13:52:27.579Z,16.43
2019-05-06T13:55:02.371Z,15.62
2019-05-06T13:57:34.067Z,14.88
2019-05-06T14:00:06.369Z,14.97
2019-05-06T14:02:38.674Z,16.87
2019-05-06T14:05:12.109Z,15.41
2019-05-06T14:07:44.689Z,14.02
2019-05-06T14:10:16.965Z,13.45
2019-05-06T14:12:49.401Z,14.18
2019-05-06T14:15:23.209Z,15.09
2019-05-06T14:17:55.685Z,14.99
2019-05-06T14:20:27.960Z,14.68
2019-05-06T14:23:02.230Z,14.73
2019-05-06T14:25:34.758Z,14.59
2019-05-06T14:28:07.058Z,14.15
2019-05-06T14:30:39.396Z,14.07
2019-05-06T14:33:15.536Z,14.24
2019-05-06T14:35:47.984Z,14.10
2019-05-06T14:38:20.203Z,13.94
2019-05-06T14:40:52.690Z,13.54
2019-05-06T14:43:25.145Z,13.38
2019-05-06T14:45:57.619Z,12.99
2019-05-06T14:48:29.875Z,12.47
2019-05-06T14:51:02.417Z,12.00
2019-05-06T14:53:35.114Z,11.95
2019-05-06T14:56:07.592Z,11.81
2019-05-06T14:58:42.846Z,11.51
2019-05-06T15:01:15.341Z,11.58
2019-05-06T15:03:47.904Z,11.47
2019-05-06T15:06:22.176Z,11.60
2019-05-06T15:08:54.194Z,11.73
2019-05-06T15:11:26.486Z,11.73
2019-05-06T15:13:58.794Z,11.74
2019-05-06T15:16:33.744Z,11.78
2019-05-06T15:19:06.276Z,12.01
2019-05-06T15:21:39.141Z,12.17
2019-05-06T15:24:14.204Z,12.29
2019-05-06T15:26:45.687Z,12.43
2019-05-06T15:29:17.979Z,13.06
2019-05-06T15:31:52.731Z,13.12
2019-05-06T15:34:24.250Z,13.37
2019-05-06T15:36:56.582Z,13.72
2019-05-06T15:39:29.338Z,13.70
2019-05-06T15:42:01.934Z,13.80
2019-05-06T15:44:35.419Z,13.29
2019-05-06T15:47:10.374Z,13.20
2019-05-06T15:49:42.948Z,12.98
2019-05-06T15:52:15.292Z,12.81
2019-05-06T15:54:47.702Z,12.79
2019-05-06T15:57:20.017Z,12.48
2019-05-06T15:59:53.148Z,12.08
2019-05-06T16:02:26.863Z,11.98
2019-05-06T16:04:59.127Z,11.87
2019-05-06T16:07:35.012Z,11.63
2019-05-06T16:10:05.537Z,11.61
2019-05-06T16:12:37.897Z,11.76
2019-05-06T16:15:10.252Z,11.72
2019-05-06T16:17:42.836Z,11.57
2019-05-06T16:20:15.305Z,11.39
2019-05-06T16:22:47.901Z,11.19
2019-05-06T16:25:20.218Z,10.99
2019-05-06T16:27:54.608Z,10.89
2019-05-06T16:30:27.568Z,10.83
2019-05-06T16:32:59.760Z,10.95
2019-05-06T16:35:32.683Z,10.97
2019-05-06T16:38:05.150Z,10.74
2019-05-06T16:40:37.493Z,10.60
2019-05-06T16:43:09.940Z,10.49
2019-05-06T16:45:42.853Z,10.40
2019-05-06T16:48:16.434Z,10.23
2019-05-06T16:50:48.730Z,10.18
2019-05-06T16:53:23.012Z,10.17
2019-05-06T16:55:55.584Z,10.14
2019-05-06T16:58:27.968Z,9.99
2019-05-06T17:01:03.283Z,9.87
2019-05-06T17:03:35.297Z,9.71
2019-05-06T17:06:07.717Z,9.67
2019-05-06T17:08:42.303Z,9.73
2019-05-06T17:11:26.905Z,9.67
2019-05-06T17:13:47.965Z,9.66
2019-05-06T17:16:22.120Z,9.64
2019-05-06T17:18:56.615Z,9.66
2019-05-06T17:21:28.051Z,9.80
2019-05-06T17:24:02.323Z,9.87
2019-05-06T17:26:34.358Z,9.90
2019-05-06T17:29:06.780Z,9.89
2019-05-06T17:31:39.025Z,9.86
2019-05-06T17:34:12.849Z,9.93
2019-05-06T17:36:45.179Z,9.99
2019-05-06T17:39:17.603Z,9.95
2019-05-06T17:41:52.086Z,10.03
2019-05-06T17:44:25.818Z,10.04
2019-05-06T17:46:58.037Z,10.00
2019-05-06T17:49:30.402Z,9.85
2019-05-06T17:52:03.081Z,9.76
2019-05-06T17:54:35.325Z,9.66
2019-05-06T17:57:07.613Z,9.63
2019-05-06T17:59:41.919Z,9.73
2019-05-06T18:02:14.946Z,9.80
2019-05-06T18:04:47.310Z,9.71
2019-05-06T18:07:22.134Z,9.72
2019-05-06T18:09:53.871Z,9.77
2019-05-06T18:12:26.130Z,9.69
2019-05-06T18:15:02.685Z,9.65
2019-05-06T18:17:35.049Z,9.53
2019-05-06T18:20:07.372Z,9.53
2019-05-06T18:22:39.587Z,9.55
2019-05-06T18:25:12.815Z,9.64
2019-05-06T18:27:45.035Z,9.63
2019-05-06T18:30:24.776Z,9.66
2019-05-06T18:32:52.078Z,9.62
2019-05-06T18:35:24.343Z,9.58
2019-05-06T18:37:56.743Z,9.59
2019-05-06T18:40:29.003Z,9.52
2019-05-06T18:43:02.000Z,9.50
2019-05-06T18:45:34.309Z,9.49
2019-05-06T18:48:06.618Z,9.37
2019-05-06T18:50:39.076Z,9.28
2019-05-06T18:53:13.347Z,9.27
2019-05-06T18:55:46.335Z,9.26
2019-05-06T18:58:22.360Z,9.17
2019-05-06T19:00:55.066Z,9.04
2019-05-06T19:03:28.959Z,9.00
2019-05-06T19:06:02.320Z,8.93
2019-05-06T19:08:35.598Z,8.93
2019-05-06T19:11:09.438Z,8.96
2019-05-06T19:13:45.108Z,8.88
2019-05-06T19:16:17.575Z,8.85
2019-05-06T19:18:52.220Z,8.80
2019-05-06T19:21:24.569Z,8.86
2019-05-06T19:23:56.958Z,8.92
2019-05-06T19:26:29.270Z,8.92
2019-05-06T19:29:04.343Z,8.93
2019-05-06T19:31:35.537Z,8.95
2019-05-06T19:34:07.785Z,8.89
2019-05-06T19:36:42.153Z,8.79
2019-05-06T19:39:14.014Z,8.71
2019-05-06T19:41:46.266Z,8.59
2019-05-06T19:44:18.552Z,8.54
2019-05-06T19:46:53.100Z,8.50
2019-05-06T19:49:24.917Z,8.43
2019-05-06T19:51:57.528Z,8.33
2019-05-06T19:54:29.736Z,8.27
2019-05-06T19:57:02.582Z,8.23
2019-05-06T19:59:34.923Z,8.19
2019-05-06T20:02:07.347Z,8.15
2019-05-06T20:04:39.572Z,8.11
2019-05-06T20:07:13.354Z,8.11
2019-05-06T20:09:45.738Z,8.13
2019-05-06T20:12:17.980Z,8.15
2019-05-06T20:14:52.356Z,8.16
2019-05-06T20:17:24.184Z,8.11
2019-05-06T20:19:56.419Z,8.03
2019-05-06T20:22:28.688Z,7.95
2019-05-06T20:25:03.046Z,7.89
2019-05-06T20:27:35.136Z,7.83
2019-05-06T20:30:07.616Z,7.81
2019-05-06T20:32:42.430Z,7.80
2019-05-06T20:35:14.274Z,7.76
2019-05-06T20:37:46.499Z,7.75
2019-05-06T20:40:18.739Z,7.67
2019-05-06T20:42:51.076Z,7.65
2019-05-06T20:45:23.284Z,7.62
2019-05-06T20:47:55.871Z,7.60
2019-05-06T20:50:28.546Z,7.58
2019-05-06T20:53:00.831Z,7.54
2019-05-06T20:55:35.791Z,7.50
2019-05-06T20:58:07.195Z,7.49
2019-05-06T21:00:39.484Z,7.49
2019-05-06T21:03:12.297Z,7.49
2019-05-06T21:05:44.727Z,7.48
2019-05-06T21:08:16.946Z,7.45
2019-05-06T21:10:49.867Z,7.43
2019-05-06T21:13:31.761Z,7.42
2019-05-06T21:15:57.295Z,7.41
2019-05-06T21:18:29.516Z,7.41
2019-05-06T21:21:02.260Z,7.39
2019-05-06T21:23:34.566Z,7.37
2019-05-06T21:26:07.191Z,7.35
2019-05-06T21:28:46.625Z,7.33
2019-05-06T21:31:19.001Z,7.35
2019-05-06T21:33:52.232Z,7.35
2019-05-06T21:36:24.563Z,7.40
2019-05-06T21:38:56.737Z,7.42
2019-05-06T21:41:28.948Z,7.47
2019-05-06T21:44:02.448Z,7.53
2019-05-06T21:46:34.823Z,7.56
2019-05-06T21:49:07.057Z,7.58
2019-05-06T21:51:39.252Z,7.61
2019-05-06T21:54:12.542Z,7.64
2019-05-06T21:56:46.031Z,7.69
2019-05-06T21:59:18.456Z,7.76
2019-05-06T22:01:52.055Z,7.84
2019-05-06T22:04:24.552Z,7.91
2019-05-06T22:06:56.819Z,7.98
2019-05-06T22:09:29.045Z,8.03
2019-05-06T22:12:02.427Z,8.09
2019-05-06T22:14:34.955Z,8.13
2019-05-06T22:17:07.379Z,8.16
2019-05-06T22:19:39.659Z,8.20
2019-05-06T22:22:14.376Z,8.24
2019-05-06T22:24:45.995Z,8.27
2019-05-06T22:27:18.089Z,8.28
2019-05-06T22:29:52.235Z,8.28
2019-05-06T22:32:24.460Z,8.31
2019-05-06T22:34:56.971Z,8.32
2019-05-06T22:37:29.465Z,8.34
2019-05-06T22:40:02.337Z,8.34
2019-05-06T22:42:35.051Z,8.29
2019-05-06T22:45:07.754Z,8.24
2019-05-06T22:47:41.959Z,8.14
2019-05-06T22:50:13.960Z,8.04
2019-05-06T22:52:46.229Z,7.96
2019-05-06T22:55:18.497Z,7.91
2019-05-06T22:57:52.820Z,7.88
2019-05-06T23:00:24.780Z,7.82
2019-05-06T23:02:57.129Z,7.81
2019-05-06T23:05:29.566Z,7.81
2019-05-06T23:08:02.800Z,7.88
2019-05-06T23:10:35.505Z,7.91
2019-05-06T23:13:08.070Z,7.96
2019-05-06T23:15:42.076Z,8.01
2019-05-06T23:18:14.460Z,8.05
2019-05-06T23:20:46.729Z,8.09
2019-05-06T23:23:19.129Z,8.11
2019-05-06T23:25:52.538Z,8.11
2019-05-06T23:28:25.149Z,8.12
2019-05-06T23:31:01.894Z,8.12
2019-05-06T23:33:33.654Z,8.13
2019-05-06T23:36:06.951Z,8.09
2019-05-06T23:38:39.244Z,7.98
2019-05-06T23:41:12.352Z,7.82
2019-05-06T23:43:44.838Z,7.68
2019-05-06T23:46:17.274Z,7.55
2019-05-06T23:48:49.526Z,7.42
2019-05-06T23:51:22.353Z,7.32
2019-05-06T23:53:54.931Z,7.26
2019-05-06T23:56:27.212Z,7.18
2019-05-06T23:58:59.471Z,7.09
